M I D A S
Marine Information and Data Acquisition System
Tripno 1906 of the Zeeleeuw from 2010-06-23 07:12:48 to 2010-06-23 14:53:10
Back to CruiseResearch ActivitiesStationsMapUnderway DataData graphs

EquipmentUnitsComment
TimeDGPSUTC
LatitudeDGPSDM.mWGS84
LongitudeDGPSDM.mWGS84
HeadingGyrodeg 
SOGDGPSknotsSpeed over ground
COGDGPSdegCourse over ground
DepthEcho soundermeters200 kHz
Missing or incorrect values are displayed as -999
Navigation data collected by the RV Zeeleeuw from 2010-06-23 06:39:38 to 2010-06-23 14:55:23
                                                                                    Next 1000 lines
Time Latitude Longitude Heading SOG COG Depth
2010-06-23 06:39:48 51°13.662 2°55.962 126.4 0.1 122 5.9
2010-06-23 06:39:52 51°13.662 2°55.962 126.4 0.1 135 5.9
2010-06-23 06:39:57 51°13.662 2°55.963 126.4 0.1 147 5.9
2010-06-23 06:40:02 51°13.662 2°55.963 126.4 0.1 147 5.9
2010-06-23 06:40:07 51°13.662 2°55.963 126.4 -999 183 5.9
2010-06-23 06:40:12 51°13.662 2°55.963 126.3 -999 357 5.9
2010-06-23 06:40:17 51°13.662 2°55.963 126.3 -999 347 5.9
2010-06-23 06:40:21 51°13.662 2°55.963 126.3 -999 326 5.9
2010-06-23 06:40:26 51°13.662 2°55.963 126.3 -999 227 5.9
2010-06-23 06:40:32 51°13.662 2°55.963 126.3 -999 209 5.9
2010-06-23 06:40:36 51°13.662 2°55.963 126.3 -999 353 5.9
2010-06-23 06:40:41 51°13.662 2°55.963 126.3 0.1 354 6
2010-06-23 06:40:46 51°13.662 2°55.963 126.3 -999 334 6
2010-06-23 06:40:51 51°13.662 2°55.963 126.2 0.1 200 6
2010-06-23 06:40:57 51°13.662 2°55.963 126.1 0.1 236 5.9
2010-06-23 06:41:01 51°13.662 2°55.963 126 -999 305 6
2010-06-23 06:41:06 51°13.662 2°55.963 125.9 -999 156 5.9
2010-06-23 06:41:11 51°13.662 2°55.963 125.9 -999 186 6.1
2010-06-23 06:41:17 51°13.662 2°55.963 125.9 -999 104 5.9
2010-06-23 06:41:21 51°13.662 2°55.963 125.9 -999 228 6
2010-06-23 06:41:26 51°13.662 2°55.963 125.9 -999 182 5.9
2010-06-23 06:41:31 51°13.662 2°55.963 125.9 0.1 202 6
2010-06-23 06:41:37 51°13.662 2°55.963 125.9 0.1 216 6
2010-06-23 06:41:42 51°13.662 2°55.963 125.9 -999 209 6
2010-06-23 06:41:46 51°13.662 2°55.963 125.8 -999 222 6
2010-06-23 06:41:51 51°13.662 2°55.963 125.8 0.1 196 6
2010-06-23 06:41:57 51°13.662 2°55.963 125.8 -999 194 6
2010-06-23 06:42:02 51°13.662 2°55.963 125.8 -999 173 6
2010-06-23 06:42:06 51°13.662 2°55.963 125.8 -999 206 6
2010-06-23 06:42:11 51°13.662 2°55.963 125.8 -999 339 5.9
2010-06-23 06:42:16 51°13.662 2°55.963 125.8 -999 305 5.9
2010-06-23 06:42:22 51°13.662 2°55.962 125.8 0.1 204 6
2010-06-23 06:42:26 51°13.662 2°55.962 125.8 0.1 195 6
2010-06-23 06:42:31 51°13.662 2°55.962 125.8 -999 186 5.9
2010-06-23 06:42:37 51°13.662 2°55.962 125.8 -999 23 5.9
2010-06-23 06:42:41 51°13.662 2°55.962 125.8 -999 193 6.1
2010-06-23 06:42:46 51°13.662 2°55.962 125.8 0.1 195 6.1
2010-06-23 06:42:51 51°13.662 2°55.962 125.8 0.1 191 6.1
2010-06-23 06:42:57 51°13.662 2°55.962 125.8 -999 157 6.1
2010-06-23 06:43:02 51°13.662 2°55.962 125.8 -999 195 6.1
2010-06-23 06:43:06 51°13.662 2°55.962 125.9 -999 237 6.1
2010-06-23 06:43:11 51°13.662 2°55.962 126 -999 28 6.1
2010-06-23 06:43:17 51°13.662 2°55.962 126 -999 187 6.1
2010-06-23 06:43:21 51°13.662 2°55.962 126.1 -999 113 6.1
2010-06-23 06:43:26 51°13.662 2°55.962 126.3 -999 30 6.1
2010-06-23 06:43:31 51°13.662 2°55.962 126.4 -999 39 6.1
2010-06-23 06:43:37 51°13.661 2°55.962 126.4 -999 203 6.1
2010-06-23 06:43:41 51°13.661 2°55.962 126.5 -999 203 6.1
2010-06-23 06:43:46 51°13.661 2°55.962 126.6 -999 130 6.1
2010-06-23 06:43:51 51°13.661 2°55.962 126.6 0.1 4 6.1
2010-06-23 06:43:57 51°13.661 2°55.962 126.6 -999 346 6.1
2010-06-23 06:44:01 51°13.661 2°55.962 126.6 -999 212 6
2010-06-23 06:44:06 51°13.661 2°55.962 126.6 -999 201 6.1
2010-06-23 06:44:11 51°13.661 2°55.962 126.6 -999 11 6.1
2010-06-23 06:44:17 51°13.661 2°55.961 126.6 0.1 194 6.1
2010-06-23 06:44:22 51°13.661 2°55.962 126.5 0.1 201 6.1
2010-06-23 06:44:26 51°13.661 2°55.962 126.5 -999 219 6.1
2010-06-23 06:44:31 51°13.661 2°55.962 126.4 -999 117 6.1
2010-06-23 06:44:36 51°13.662 2°55.962 126.4 -999 356 6.1
2010-06-23 06:44:42 51°13.662 2°55.962 126.3 -999 339 6.1
2010-06-23 06:44:46 51°13.662 2°55.962 126.1 -999 355 6.1
2010-06-23 06:44:51 51°13.662 2°55.961 125.9 -999 234 6.1
2010-06-23 06:44:57 51°13.662 2°55.961 125.8 -999 234 6.1
2010-06-23 06:45:01 51°13.662 2°55.961 125.7 -999 296 6.1
2010-06-23 06:45:06 51°13.662 2°55.961 125.7 0.1 216 6.1
2010-06-23 06:45:11 51°13.662 2°55.961 125.7 -999 201 6.1
2010-06-23 06:45:16 51°13.662 2°55.961 125.7 -999 203 6.1
2010-06-23 06:45:21 51°13.662 2°55.961 125.7 -999 211 6
2010-06-23 06:45:26 51°13.662 2°55.961 125.7 -999 217 6.1
2010-06-23 06:45:31 51°13.662 2°55.961 125.9 -999 191 6.1
2010-06-23 06:45:36 51°13.661 2°55.961 125.9 0.1 206 6.1
2010-06-23 06:45:41 51°13.661 2°55.961 126 0.1 208 6.1
2010-06-23 06:45:46 51°13.661 2°55.961 126 0.1 211 6.1
2010-06-23 06:45:51 51°13.661 2°55.961 126 0.1 209 6.1
2010-06-23 06:45:56 51°13.661 2°55.961 126 -999 238 6.1
2010-06-23 06:46:01 51°13.661 2°55.961 125.9 0.1 210 6
2010-06-23 06:46:06 51°13.661 2°55.961 125.8 0.1 196 6.1
2010-06-23 06:46:11 51°13.662 2°55.961 125.7 -999 224 6.1
2010-06-23 06:46:16 51°13.662 2°55.961 125.6 -999 237 6.1
2010-06-23 06:46:22 51°13.661 2°55.961 125.6 0.1 216 6
2010-06-23 06:46:26 51°13.661 2°55.961 125.6 0.1 218 6.1
2010-06-23 06:46:31 51°13.661 2°55.961 125.6 -999 217 6.1
2010-06-23 06:46:36 51°13.661 2°55.961 125.6 -999 255 6.1
2010-06-23 06:46:42 51°13.661 2°55.961 125.6 -999 234 6.1
2010-06-23 06:46:46 51°13.661 2°55.961 125.6 -999 208 6.1
2010-06-23 06:46:51 51°13.661 2°55.961 125.6 0.1 190 6.1
2010-06-23 06:46:56 51°13.661 2°55.961 125.6 -999 210 6.1
2010-06-23 06:47:02 51°13.661 2°55.961 125.6 -999 213 6.1
2010-06-23 06:47:06 51°13.661 2°55.961 125.6 0.1 206 6
2010-06-23 06:47:11 51°13.661 2°55.961 125.6 0.1 203 6.1
2010-06-23 06:47:16 51°13.661 2°55.961 125.6 0.1 202 6.1
2010-06-23 06:47:21 51°13.661 2°55.961 125.6 -999 218 6.1
2010-06-23 06:47:26 51°13.661 2°55.961 125.6 -999 1 6.1
2010-06-23 06:47:31 51°13.661 2°55.961 125.6 0.1 19 6.1
2010-06-23 06:47:36 51°13.661 2°55.961 125.6 -999 29 6.1
2010-06-23 06:47:41 51°13.661 2°55.961 125.6 -999 311 6.1
2010-06-23 06:47:46 51°13.661 2°55.961 125.6 -999 35 6.1
2010-06-23 06:47:51 51°13.661 2°55.961 125.6 -999 166 6
2010-06-23 06:47:56 51°13.661 2°55.961 125.6 -999 172 6.1
2010-06-23 06:48:01 51°13.662 2°55.961 125.6 -999 157 6
2010-06-23 06:48:06 51°13.662 2°55.961 125.6 0.1 198 6.1
2010-06-23 06:48:11 51°13.662 2°55.961 125.6 -999 215 6.1
2010-06-23 06:48:16 51°13.662 2°55.961 125.6 -999 194 6.1
2010-06-23 06:48:21 51°13.662 2°55.961 125.6 -999 215 6.1
2010-06-23 06:48:26 51°13.661 2°55.961 125.6 -999 310 6.1
2010-06-23 06:48:31 51°13.662 2°55.961 125.6 -999 247 6.1
2010-06-23 06:48:37 51°13.661 2°55.961 125.6 -999 29 6.1
2010-06-23 06:48:41 51°13.661 2°55.961 125.6 -999 80 6.1
2010-06-23 06:48:46 51°13.661 2°55.961 125.6 -999 8 6.1
2010-06-23 06:48:51 51°13.661 2°55.961 125.6 -999 337 6.1
2010-06-23 06:48:57 51°13.661 2°55.961 125.6 0.1 23 6.1
2010-06-23 06:49:01 51°13.661 2°55.961 125.6 -999 179 6.1
2010-06-23 06:49:06 51°13.661 2°55.961 125.7 -999 189 6.1
2010-06-23 06:49:11 51°13.661 2°55.961 125.7 -999 253 6.1
2010-06-23 06:49:16 51°13.661 2°55.961 125.7 -999 286 6.1
2010-06-23 06:49:22 51°13.661 2°55.961 125.7 -999 187 6.1
2010-06-23 06:49:26 51°13.661 2°55.961 125.7 -999 185 6.1
2010-06-23 06:49:31 51°13.661 2°55.961 125.7 -999 201 6.1
2010-06-23 06:49:36 51°13.661 2°55.961 125.7 0.1 207 6.1
2010-06-23 06:49:41 51°13.661 2°55.961 125.7 -999 315 6.1
2010-06-23 06:49:46 51°13.661 2°55.961 125.7 -999 174 6.1
2010-06-23 06:49:51 51°13.661 2°55.961 125.7 -999 153 6.1
2010-06-23 06:49:56 51°13.661 2°55.961 125.9 -999 141 6.1
2010-06-23 06:50:01 51°13.662 2°55.961 126.2 0.1 77 6.1
2010-06-23 06:50:06 51°13.661 2°55.962 126.5 0.1 136 6.2
2010-06-23 06:50:11 51°13.661 2°55.962 127 0.1 176 6.1
2010-06-23 06:50:16 51°13.661 2°55.962 127.5 0.1 34 6.2
2010-06-23 06:50:21 51°13.661 2°55.962 127.8 -999 271 6.2
2010-06-23 06:50:26 51°13.661 2°55.962 127.9 -999 308 6.2
2010-06-23 06:50:31 51°13.661 2°55.962 128 -999 259 6.1
2010-06-23 06:50:36 51°13.662 2°55.962 128 0.1 14 6.1
2010-06-23 06:50:41 51°13.662 2°55.962 127.9 0.1 19 6.2
2010-06-23 06:50:46 51°13.662 2°55.962 127.9 0.1 19 6.2
2010-06-23 06:50:51 51°13.662 2°55.962 127.9 -999 268 6.2
2010-06-23 06:50:56 51°13.662 2°55.962 127.9 -999 162 6.2
2010-06-23 06:51:01 51°13.662 2°55.962 127.9 -999 199 6.2
2010-06-23 06:51:06 51°13.662 2°55.962 127.9 -999 224 6.2
2010-06-23 06:51:10 51°13.662 2°55.962 127.9 -999 54 6.2
2010-06-23 06:51:16 51°13.662 2°55.962 127.9 -999 21 6.2
2010-06-23 06:51:21 51°13.662 2°55.962 127.9 -999 237 6.2
2010-06-23 06:51:26 51°13.662 2°55.962 127.9 -999 337 6.2
2010-06-23 06:51:30 51°13.662 2°55.962 127.9 -999 3 6.2
2010-06-23 06:51:37 51°13.661 2°55.962 127.9 0.1 193 6.2
2010-06-23 06:51:42 51°13.662 2°55.962 127.9 0.1 20 6.2
2010-06-23 06:51:46 51°13.661 2°55.962 127.9 -999 74 6.3
2010-06-23 06:51:50 51°13.661 2°55.962 127.9 -999 155 6.2
2010-06-23 06:51:56 51°13.661 2°55.962 127.9 -999 180 6.2
2010-06-23 06:52:01 51°13.661 2°55.962 128 -999 41 6.2
2010-06-23 06:52:06 51°13.661 2°55.962 128 -999 351 6.2
2010-06-23 06:52:10 51°13.661 2°55.962 128 -999 179 6.2
2010-06-23 06:52:16 51°13.661 2°55.962 128 -999 188 6.2
2010-06-23 06:52:21 51°13.661 2°55.962 127.9 -999 172 6.2
2010-06-23 06:52:26 51°13.661 2°55.962 127.6 -999 128 6.2
2010-06-23 06:52:30 51°13.661 2°55.962 127.1 -999 78 6.3
2010-06-23 06:52:36 51°13.661 2°55.962 126.3 0.1 178 6.2
2010-06-23 06:52:42 51°13.661 2°55.962 125.4 0.1 191 6.2
2010-06-23 06:52:47 51°13.661 2°55.962 124.4 0.1 196 6.1
2010-06-23 06:52:51 51°13.66 2°55.962 123.5 0.1 192 6.2
2010-06-23 06:52:56 51°13.66 2°55.962 122.5 0.1 193 6.3
2010-06-23 06:53:01 51°13.66 2°55.962 121.5 0.1 195 6.2
2010-06-23 06:53:07 51°13.66 2°55.962 120.5 0.1 195 6.2
2010-06-23 06:53:11 51°13.66 2°55.962 119.5 0.1 204 6.3
2010-06-23 06:53:16 51°13.66 2°55.962 118.5 0.1 198 6.2
2010-06-23 06:53:21 51°13.66 2°55.962 117.7 0.1 203 6.3
2010-06-23 06:53:27 51°13.66 2°55.962 116.8 0.1 234 6.3
2010-06-23 06:53:31 51°13.66 2°55.962 116 0.1 259 6.3
2010-06-23 06:53:36 51°13.66 2°55.961 115.4 0.4 301 6.3
2010-06-23 06:53:42 51°13.66 2°55.959 115 0.5 292 6.3
2010-06-23 06:53:47 51°13.661 2°55.958 114.9 0.7 293 6.3
2010-06-23 06:53:51 51°13.661 2°55.956 114.8 0.9 292 6.3
2010-06-23 06:53:57 51°13.663 2°55.953 115 1.3 298 6.5
2010-06-23 06:54:01 51°13.663 2°55.95 115.5 1.6 297 6.5
2010-06-23 06:54:07 51°13.665 2°55.946 115.8 1.9 299 -999
2010-06-23 06:54:13 51°13.667 2°55.941 116 2.2 296 -999
2010-06-23 06:54:19 51°13.669 2°55.935 116 2.5 297 -999
2010-06-23 06:54:24 51°13.67 2°55.929 115.5 2.6 295 -999
2010-06-23 06:54:30 51°13.672 2°55.923 114.5 2.9 295 -999
2010-06-23 06:54:35 51°13.674 2°55.917 113.4 3 294 -999
2010-06-23 06:54:40 51°13.676 2°55.91 112.1 3.2 294 -999
2010-06-23 06:54:45 51°13.677 2°55.903 111 3.3 291 -999
2010-06-23 06:54:50 51°13.679 2°55.896 110.1 3.5 290 -999
2010-06-23 06:54:55 51°13.681 2°55.888 109.3 3.6 289 -999
2010-06-23 06:55:00 51°13.683 2°55.88 108.6 3.7 288 -999
2010-06-23 06:55:05 51°13.684 2°55.872 107.9 3.8 287 -999
2010-06-23 06:55:10 51°13.686 2°55.864 106.8 3.9 287 -999
2010-06-23 06:55:15 51°13.687 2°55.856 105.8 3.9 286 -999
2010-06-23 06:55:20 51°13.689 2°55.847 104.7 4 285 -999
2010-06-23 06:55:25 51°13.69 2°55.838 103.6 4 284 -999
2010-06-23 06:55:30 51°13.691 2°55.83 102.4 4.1 283 -999
2010-06-23 06:55:35 51°13.692 2°55.821 101.2 4.1 282 -999
2010-06-23 06:55:40 51°13.693 2°55.812 99.9 4 281 -999
2010-06-23 06:55:45 51°13.694 2°55.803 98.5 4 280 -999
2010-06-23 06:55:50 51°13.695 2°55.795 97 3.9 279 -999
2010-06-23 06:55:55 51°13.696 2°55.787 95.4 3.7 277 -999
2010-06-23 06:56:00 51°13.696 2°55.78 93.7 3.5 276 -999
2010-06-23 06:56:05 51°13.697 2°55.772 92.1 3.4 275 -999
2010-06-23 06:56:10 51°13.697 2°55.765 90.7 3.3 273 -999
2010-06-23 06:56:15 51°13.697 2°55.758 89.4 3.2 272 -999
2010-06-23 06:56:19 51°13.697 2°55.753 88.4 3 271 14.3
2010-06-23 06:56:24 51°13.697 2°55.746 87.5 2.9 270 13.4
2010-06-23 06:56:30 51°13.697 2°55.739 86.6 2.7 271 13.1
2010-06-23 06:56:35 51°13.697 2°55.734 85.8 2.3 269 13.2
2010-06-23 06:56:39 51°13.697 2°55.731 84.3 1.8 270 13.2
2010-06-23 06:56:44 51°13.697 2°55.728 82 1.2 271 13.3
2010-06-23 06:56:49 51°13.697 2°55.727 79.2 0.6 287 13.3
2010-06-23 06:56:54 51°13.698 2°55.727 75.6 0.3 345 13.5
2010-06-23 06:56:59 51°13.699 2°55.727 71 0.6 26 13.6
2010-06-23 06:57:04 51°13.699 2°55.729 65.4 1 40 13.7
2010-06-23 06:57:09 51°13.701 2°55.731 59.1 1.4 40 13.2
2010-06-23 06:57:14 51°13.703 2°55.734 52.3 1.8 37 13
2010-06-23 06:57:19 51°13.706 2°55.736 45.3 1.9 33 12.9
2010-06-23 06:57:23 51°13.708 2°55.737 38.6 2 28 13.2
2010-06-23 06:57:28 51°13.71 2°55.739 32.8 2.1 24 13.5
2010-06-23 06:57:33 51°13.713 2°55.741 27.7 2.1 20 14
2010-06-23 06:57:39 51°13.716 2°55.742 21.7 2.1 16 14
2010-06-23 06:57:43 51°13.719 2°55.742 18.2 1.9 13 13.7
2010-06-23 06:57:48 51°13.721 2°55.743 15.1 1.4 15 13.4
2010-06-23 06:57:53 51°13.722 2°55.743 12.6 1 7 13.4
2010-06-23 06:57:58 51°13.723 2°55.744 9.7 0.6 17 13.4
2010-06-23 06:58:03 51°13.723 2°55.744 7.3 0.2 9 13.2
2010-06-23 06:58:08 51°13.723 2°55.744 5 0.2 165 13.2
2010-06-23 06:58:13 51°13.722 2°55.744 3.1 0.6 179 13.3
2010-06-23 06:58:18 51°13.721 2°55.743 1.5 0.8 178 13.4
2010-06-23 06:58:23 51°13.72 2°55.744 0.1 0.7 176 13.4
2010-06-23 06:58:27 51°13.719 2°55.744 359.1 0.6 179 13.6
2010-06-23 06:58:33 51°13.718 2°55.744 358.1 0.4 177 -999
2010-06-23 06:58:39 51°13.718 2°55.744 356.5 0.1 237 -999
2010-06-23 06:58:44 51°13.719 2°55.744 353.6 0.2 345 -999
2010-06-23 06:58:50 51°13.72 2°55.744 350.6 0.6 341 -999
2010-06-23 06:58:55 51°13.721 2°55.743 347 0.8 341 -999
2010-06-23 06:59:00 51°13.722 2°55.742 342.3 1.2 338 -999
2010-06-23 06:59:05 51°13.725 2°55.741 338.3 1.6 333 -999
2010-06-23 06:59:10 51°13.727 2°55.739 334.6 2 332 13.4
2010-06-23 06:59:15 51°13.73 2°55.736 332.5 2.3 331 13.1
2010-06-23 06:59:19 51°13.732 2°55.734 331.1 2.6 329 12.9
2010-06-23 06:59:24 51°13.736 2°55.73 329.6 3 328 12.7
2010-06-23 06:59:29 51°13.74 2°55.726 328.4 3.3 326 12.6
2010-06-23 06:59:34 51°13.744 2°55.722 327.5 3.5 326 12.5
2010-06-23 06:59:39 51°13.748 2°55.717 326.9 3.8 325 12
2010-06-23 06:59:43 51°13.752 2°55.713 326.6 4 325 11.9
2010-06-23 06:59:48 51°13.757 2°55.707 326.4 4.2 324 11.7
2010-06-23 06:59:53 51°13.761 2°55.702 326.4 4.2 325 11.3
2010-06-23 06:59:58 51°13.766 2°55.697 326.5 4.3 324 11.5
2010-06-23 07:00:03 51°13.771 2°55.691 326.7 4.4 325 11.6
2010-06-23 07:00:07 51°13.776 2°55.686 327.1 4.9 325 11.7
2010-06-23 07:00:12 51°13.782 2°55.68 328 5.1 327 11.9
2010-06-23 07:00:17 51°13.788 2°55.673 329.4 5.2 328 12.1
2010-06-23 07:00:22 51°13.794 2°55.667 330.9 5.3 330 12.1
2010-06-23 07:00:27 51°13.801 2°55.661 332.5 5.3 331 12
2010-06-23 07:00:31 51°13.806 2°55.657 333.8 5.3 333 11.9
2010-06-23 07:00:37 51°13.814 2°55.651 335.1 5.3 334 12.1
2010-06-23 07:00:42 51°13.821 2°55.647 337.5 5.2 338 12.3
2010-06-23 07:00:47 51°13.828 2°55.644 342 5.2 343 12.3
2010-06-23 07:00:51 51°13.833 2°55.641 346.1 5 344 12.2
2010-06-23 07:00:56 51°13.84 2°55.639 348.1 4.8 346 12.3
2010-06-23 07:01:01 51°13.846 2°55.637 349.8 4.7 348 12.1
2010-06-23 07:01:06 51°13.852 2°55.635 352.1 4.5 352 11.7
2010-06-23 07:01:11 51°13.858 2°55.634 354.6 4.4 353 11.3
2010-06-23 07:01:16 51°13.864 2°55.633 357.2 4.2 356 11.1
2010-06-23 07:01:21 51°13.87 2°55.633 359.2 4.1 357 11
2010-06-23 07:01:26 51°13.875 2°55.633 0.7 4 -999 11.3
2010-06-23 07:01:31 51°13.881 2°55.633 2.1 3.9 -999 10.9
2010-06-23 07:01:36 51°13.886 2°55.633 3.3 3.8 2 11.6
2010-06-23 07:01:41 51°13.891 2°55.634 4.4 3.6 2 10.4
2010-06-23 07:01:46 51°13.896 2°55.634 5.4 3.6 4 11.4
2010-06-23 07:01:51 51°13.901 2°55.635 6.1 3.5 4 11.2
2010-06-23 07:01:55 51°13.904 2°55.635 7.2 3.4 6 11.9
2010-06-23 07:02:01 51°13.91 2°55.636 8.2 3.5 6 11.6
2010-06-23 07:02:06 51°13.915 2°55.637 8.8 3.7 7 11.8
2010-06-23 07:02:11 51°13.92 2°55.638 8.7 3.8 6 11.7
2010-06-23 07:02:16 51°13.925 2°55.639 7.4 3.7 5 11.7
2010-06-23 07:02:21 51°13.93 2°55.639 5.9 3.4 3 11.7
2010-06-23 07:02:26 51°13.934 2°55.64 5 2.9 4 11.7
2010-06-23 07:02:31 51°13.938 2°55.64 3 2.5 2 11.7
2010-06-23 07:02:36 51°13.941 2°55.64 359.2 2.2 359 11.9
2010-06-23 07:02:41 51°13.944 2°55.639 355.9 2.1 354 12.1
2010-06-23 07:02:46 51°13.946 2°55.639 352 2 353 12.1
2010-06-23 07:02:51 51°13.949 2°55.638 349.7 1.9 352 12
2010-06-23 07:02:55 51°13.951 2°55.638 347.5 1.7 350 11.7
2010-06-23 07:03:01 51°13.953 2°55.637 345.6 1.6 348 11.9
2010-06-23 07:03:06 51°13.955 2°55.636 342.3 1.5 344 12.1
2010-06-23 07:03:11 51°13.957 2°55.635 339.8 1.5 344 12.5
2010-06-23 07:03:16 51°13.959 2°55.634 337.7 1.4 342 12.5
2010-06-23 07:03:21 51°13.961 2°55.633 336.2 1.4 341 12.2
2010-06-23 07:03:26 51°13.963 2°55.632 334.7 1.4 340 12
2010-06-23 07:03:31 51°13.965 2°55.631 333.6 1.4 339 12
2010-06-23 07:03:35 51°13.966 2°55.63 332.6 1.4 338 12
2010-06-23 07:03:41 51°13.968 2°55.629 331.8 1.3 338 11.9
2010-06-23 07:03:46 51°13.97 2°55.628 331.1 1.3 337 11.9
2010-06-23 07:03:51 51°13.972 2°55.626 330.6 1.3 337 11.9
2010-06-23 07:03:55 51°13.973 2°55.626 330 1.3 336 12.1
2010-06-23 07:04:01 51°13.975 2°55.624 329.6 1.2 336 12.1
2010-06-23 07:04:06 51°13.977 2°55.623 329 1.2 335 12.3
2010-06-23 07:04:11 51°13.978 2°55.622 328.7 1.2 334 12.1
2010-06-23 07:04:16 51°13.979 2°55.621 328 1.2 334 11.9
2010-06-23 07:04:21 51°13.981 2°55.62 327.6 1.1 333 11.9
2010-06-23 07:04:26 51°13.982 2°55.619 326.9 1.1 333 11.7
2010-06-23 07:04:31 51°13.983 2°55.618 326.3 1 333 11.5
2010-06-23 07:04:36 51°13.985 2°55.617 325.6 0.9 334 11.5
2010-06-23 07:04:41 51°13.986 2°55.616 325 0.8 333 11.4
2010-06-23 07:04:46 51°13.987 2°55.615 324.4 0.8 332 11.4
2010-06-23 07:04:51 51°13.988 2°55.614 323.8 0.8 332 11.4
2010-06-23 07:04:56 51°13.989 2°55.614 323.1 0.8 333 11.4
2010-06-23 07:05:01 51°13.989 2°55.613 322.6 0.8 329 11.3
2010-06-23 07:05:06 51°13.991 2°55.612 321.9 0.8 329 11.3
2010-06-23 07:05:11 51°13.991 2°55.611 321.4 0.8 329 11.3
2010-06-23 07:05:16 51°13.992 2°55.61 320.9 0.8 328 11.3
2010-06-23 07:05:21 51°13.993 2°55.609 320.6 0.7 329 11.3
2010-06-23 07:05:26 51°13.994 2°55.609 320.1 0.5 333 11.3
2010-06-23 07:05:31 51°13.994 2°55.608 319.7 0.4 330 11.3
2010-06-23 07:05:35 51°13.995 2°55.608 319.4 0.4 334 11.3
2010-06-23 07:05:41 51°13.995 2°55.608 319.3 0.4 328 11.2
2010-06-23 07:05:46 51°13.996 2°55.607 319.1 0.5 331 11.3
2010-06-23 07:05:51 51°13.996 2°55.606 318.8 0.5 329 11.3
2010-06-23 07:05:56 51°13.997 2°55.606 318.6 0.5 331 11.3
2010-06-23 07:06:01 51°13.998 2°55.605 318.4 0.4 328 11.3
2010-06-23 07:06:06 51°13.998 2°55.605 318.1 0.4 332 11.2
2010-06-23 07:06:11 51°13.998 2°55.604 317.8 0.3 331 11.3
2010-06-23 07:06:16 51°13.999 2°55.604 317.5 0.3 341 11.3
2010-06-23 07:06:20 51°13.999 2°55.604 317.5 0.2 336 11.3
2010-06-23 07:06:26 51°13.999 2°55.604 317.4 0.2 348 11.4
2010-06-23 07:06:31 51°14 2°55.604 317.4 0.2 337 11.3
2010-06-23 07:06:37 51°14 2°55.604 317.4 0.2 348 11.3
2010-06-23 07:06:42 51°14 2°55.603 317.5 0.2 340 11.2
2010-06-23 07:06:46 51°14.001 2°55.603 317.7 0.2 350 11.4
2010-06-23 07:06:51 51°14.001 2°55.603 318 0.2 345 11.2
2010-06-23 07:06:56 51°14.001 2°55.603 318.1 0.2 13 11.3
2010-06-23 07:07:02 51°14.001 2°55.603 318.4 0.1 18 11.2
2010-06-23 07:07:06 51°14.002 2°55.603 318.7 0.1 35 11.4
2010-06-23 07:07:11 51°14.002 2°55.603 319 0.1 35 11.2
2010-06-23 07:07:15 51°14.002 2°55.603 319.4 0.1 45 11.2
2010-06-23 07:07:20 51°14.002 2°55.603 319.6 0.1 53 11.4
2010-06-23 07:07:26 51°14.002 2°55.604 320 0.1 60 11.4
2010-06-23 07:07:31 51°14.002 2°55.604 320.4 0.1 72 11.4
2010-06-23 07:07:36 51°14.002 2°55.604 320.8 0.1 50 11.4
2010-06-23 07:07:41 51°14.002 2°55.604 321.1 0.1 9 11.3
2010-06-23 07:07:46 51°14.002 2°55.604 321.5 0.1 352 11.3
2010-06-23 07:07:52 51°14.003 2°55.604 321.7 0.2 328 11.3
2010-06-23 07:07:55 51°14.003 2°55.604 322 0.3 331 11.2
2010-06-23 07:08:01 51°14.004 2°55.603 322.2 0.7 324 11.2
2010-06-23 07:08:06 51°14.005 2°55.601 322.2 1.2 323 11.3
2010-06-23 07:08:12 51°14.007 2°55.598 322.2 1.8 322 11.2
2010-06-23 07:08:16 51°14.009 2°55.596 321.4 2.3 321 11.3
2010-06-23 07:08:21 51°14.012 2°55.592 320.7 2.7 319 11.1
2010-06-23 07:08:26 51°14.016 2°55.587 319.7 3.2 318 11.2
2010-06-23 07:08:31 51°14.019 2°55.582 318.8 3.6 317 11.2
2010-06-23 07:08:36 51°14.023 2°55.575 317.9 4 316 11.2
2010-06-23 07:08:41 51°14.028 2°55.569 317.5 4.4 315 11.1
2010-06-23 07:08:46 51°14.032 2°55.561 317.3 4.8 315 11.2
2010-06-23 07:08:51 51°14.038 2°55.553 317.3 5.1 315 11.2
2010-06-23 07:08:56 51°14.043 2°55.544 317.3 5.4 314 11.3
2010-06-23 07:09:01 51°14.048 2°55.535 317.2 5.7 314 11.5
2010-06-23 07:09:06 51°14.054 2°55.526 316.8 6 314 11.3
2010-06-23 07:09:12 51°14.061 2°55.514 316.7 6.3 314 11.2
2010-06-23 07:09:16 51°14.067 2°55.506 317 6.4 315 11.4
2010-06-23 07:09:21 51°14.073 2°55.496 318 6.6 317 11.4
2010-06-23 07:09:27 51°14.082 2°55.484 319.7 6.7 318 11.5
2010-06-23 07:09:31 51°14.088 2°55.476 321.6 6.9 320 11.4
2010-06-23 07:09:36 51°14.095 2°55.467 324.5 6.9 323 11.4
2010-06-23 07:09:41 51°14.103 2°55.458 326.5 7 325 11.5
2010-06-23 07:09:47 51°14.113 2°55.448 328.8 7.1 327 -999
2010-06-23 07:09:52 51°14.121 2°55.439 329.6 7.1 327 11.4
2010-06-23 07:09:56 51°14.128 2°55.432 329.5 7.2 326 11.3
2010-06-23 07:10:01 51°14.136 2°55.423 329.6 7.2 327 -999
2010-06-23 07:10:07 51°14.147 2°55.413 329.9 7.3 327 -999
2010-06-23 07:10:12 51°14.155 2°55.404 330.2 7.3 327 -999
2010-06-23 07:10:17 51°14.163 2°55.395 330.3 7.3 326 11.7
2010-06-23 07:10:22 51°14.172 2°55.386 330.1 7.3 327 11.4
2010-06-23 07:10:27 51°14.18 2°55.378 330 7.2 327 11.7
2010-06-23 07:10:32 51°14.189 2°55.369 329.9 7.2 327 11.8
2010-06-23 07:10:36 51°14.196 2°55.363 330.5 7.2 329 -999
2010-06-23 07:10:42 51°14.206 2°55.353 330.9 7.2 328 11.4
2010-06-23 07:10:47 51°14.214 2°55.345 331.3 7.2 330 12
2010-06-23 07:10:51 51°14.221 2°55.338 331.6 7.2 329 11.5
2010-06-23 07:10:56 51°14.23 2°55.33 331.6 7.2 330 11.5
2010-06-23 07:11:01 51°14.239 2°55.322 331.7 7.3 330 11.5
2010-06-23 07:11:06 51°14.247 2°55.314 331.8 7.3 330 11.5
2010-06-23 07:11:11 51°14.256 2°55.305 331.8 7.5 329 11.5
2010-06-23 07:11:16 51°14.266 2°55.296 331.6 8.2 329 11.4
2010-06-23 07:11:21 51°14.277 2°55.286 331.6 8.8 329 11.7
2010-06-23 07:11:26 51°14.288 2°55.275 331.8 9.3 329 11
2010-06-23 07:11:31 51°14.299 2°55.264 331.8 9.7 329 11.2
2010-06-23 07:11:36 51°14.311 2°55.253 331.8 10 329 11.5
2010-06-23 07:11:41 51°14.324 2°55.241 331.8 10.4 329 11.2
2010-06-23 07:11:46 51°14.336 2°55.228 331.7 10.6 328 11.4
2010-06-23 07:11:51 51°14.349 2°55.215 330.7 10.8 326 11
2010-06-23 07:11:56 51°14.362 2°55.202 329.7 11 327 11.1
2010-06-23 07:12:01 51°14.375 2°55.188 329.4 11.1 326 11
2010-06-23 07:12:06 51°14.388 2°55.175 329.3 11.3 327 11
2010-06-23 07:12:11 51°14.401 2°55.161 329.4 11.4 327 10.8
2010-06-23 07:12:16 51°14.415 2°55.147 329.6 11.5 328 11.7
2010-06-23 07:12:21 51°14.428 2°55.134 330.1 11.5 328 11.2
2010-06-23 07:12:26 51°14.442 2°55.12 330.1 11.6 328 11.7
2010-06-23 07:12:32 51°14.458 2°55.103 330 11.7 327 11.4
2010-06-23 07:12:36 51°14.469 2°55.092 329 11.7 326 11.5
2010-06-23 07:12:41 51°14.482 2°55.077 328.7 11.7 327 11.4
2010-06-23 07:12:46 51°14.496 2°55.063 328.3 11.8 326 11.5
2010-06-23 07:12:51 51°14.509 2°55.048 327.8 11.8 326 11.6
2010-06-23 07:12:56 51°14.523 2°55.033 327.2 11.9 325 11.7
2010-06-23 07:13:01 51°14.537 2°55.018 327.4 11.9 326 12.1
2010-06-23 07:13:06 51°14.55 2°55.003 327.7 11.9 325 12.3
2010-06-23 07:13:11 51°14.564 2°54.988 327.8 12 327 12.1
2010-06-23 07:13:16 51°14.578 2°54.973 327.8 12 326 12.3
2010-06-23 07:13:21 51°14.592 2°54.959 328.6 12 328 12.2
2010-06-23 07:13:26 51°14.606 2°54.946 329.9 12 329 12.1
2010-06-23 07:13:31 51°14.62 2°54.932 330.4 12 328 12.1
2010-06-23 07:13:36 51°14.634 2°54.918 330.4 12 328 12.2
2010-06-23 07:13:41 51°14.648 2°54.904 330.4 12 328 12.4
2010-06-23 07:13:46 51°14.662 2°54.89 330 11.9 328 12.3
2010-06-23 07:13:52 51°14.679 2°54.873 331 11.9 329 12.4
2010-06-23 07:13:56 51°14.69 2°54.862 330.7 11.9 327 12.2
2010-06-23 07:14:01 51°14.704 2°54.847 329.6 11.9 326 12.1
2010-06-23 07:14:07 51°14.721 2°54.83 328.9 11.9 326 12.3
2010-06-23 07:14:11 51°14.732 2°54.818 328.9 11.9 326 12.2
2010-06-23 07:14:16 51°14.745 2°54.803 328.8 11.9 326 12.1
2010-06-23 07:14:21 51°14.759 2°54.789 328.9 11.9 326 12.2
2010-06-23 07:14:26 51°14.773 2°54.774 329.1 12 326 12.2
2010-06-23 07:14:32 51°14.79 2°54.756 329.1 12.2 326 12.1
2010-06-23 07:14:36 51°14.801 2°54.744 329.3 12.4 327 12.2
2010-06-23 07:14:41 51°14.816 2°54.728 329.5 12.6 327 12.2
2010-06-23 07:14:46 51°14.831 2°54.713 329.9 12.7 327 12.1
2010-06-23 07:14:52 51°14.849 2°54.695 330.3 12.8 327 12
2010-06-23 07:14:56 51°14.861 2°54.683 330.5 12.9 328 12.3
2010-06-23 07:15:01 51°14.876 2°54.667 330.5 13 327 11.9
2010-06-23 07:15:06 51°14.891 2°54.651 330.4 13.1 327 12.2
2010-06-23 07:15:12 51°14.909 2°54.631 329.5 13.1 325 11.9
2010-06-23 07:15:16 51°14.921 2°54.618 328.8 13.1 326 -999
2010-06-23 07:15:22 51°14.939 2°54.597 327.9 13.1 324 11.8
2010-06-23 07:15:27 51°14.953 2°54.581 327.6 13.1 324 10.5
2010-06-23 07:15:32 51°14.968 2°54.563 327.1 13.1 323 10.4
2010-06-23 07:15:36 51°14.979 2°54.549 326.7 13 323 10.4
2010-06-23 07:15:41 51°14.993 2°54.531 326 13.1 322 10.4
2010-06-23 07:15:47 51°15.011 2°54.511 326 13.1 323 10.3
2010-06-23 07:15:51 51°15.022 2°54.496 326.2 13.2 322 10.5
2010-06-23 07:15:56 51°15.037 2°54.479 326.6 13.2 323 10.4
2010-06-23 07:16:01 51°15.051 2°54.461 326.7 13.2 323 10.3
2010-06-23 07:16:07 51°15.069 2°54.44 327 13.2 324 10.4
2010-06-23 07:16:11 51°15.081 2°54.426 327.1 13.2 323 10.3
2010-06-23 07:16:16 51°15.095 2°54.409 327.3 13.2 324 10.2
2010-06-23 07:16:21 51°15.11 2°54.392 327.4 13.2 324 10.5
2010-06-23 07:16:26 51°15.125 2°54.375 327.4 13.2 324 10.4
2010-06-23 07:16:31 51°15.14 2°54.358 327 13.2 324 10.4
2010-06-23 07:16:36 51°15.155 2°54.34 326.7 13.2 323 10.5
2010-06-23 07:16:41 51°15.169 2°54.323 326 13.2 323 10.6
2010-06-23 07:16:46 51°15.183 2°54.305 325.2 13.2 322 10.6
2010-06-23 07:16:51 51°15.198 2°54.287 324.8 13.2 323 10.6
2010-06-23 07:16:56 51°15.213 2°54.269 325 13.2 323 10.6
2010-06-23 07:17:01 51°15.227 2°54.252 325.2 13.3 323 10.8
2010-06-23 07:17:06 51°15.242 2°54.234 325.3 13.3 323 10.8
2010-06-23 07:17:11 51°15.257 2°54.216 325.5 13.3 323 10.7
2010-06-23 07:17:16 51°15.271 2°54.199 325.7 13.3 323 10.8
2010-06-23 07:17:21 51°15.286 2°54.181 326 13.3 323 10.8
2010-06-23 07:17:26 51°15.301 2°54.164 326 13.3 324 10.9
2010-06-23 07:17:31 51°15.316 2°54.146 326.2 13.3 323 10.8
2010-06-23 07:17:36 51°15.331 2°54.129 326.2 13.3 324 11
2010-06-23 07:17:41 51°15.345 2°54.111 326.5 13.3 324 10.9
2010-06-23 07:17:46 51°15.36 2°54.094 326.4 13.3 323 10.8
2010-06-23 07:17:51 51°15.375 2°54.076 326 13.2 322 11
2010-06-23 07:17:56 51°15.389 2°54.058 325.2 13.3 322 11
2010-06-23 07:18:01 51°15.404 2°54.039 324.4 13.3 321 11
2010-06-23 07:18:06 51°15.418 2°54.021 324.2 13.3 321 11.1
2010-06-23 07:18:11 51°15.432 2°54.003 323.8 13.3 321 11.2
2010-06-23 07:18:16 51°15.447 2°53.984 323.5 13.3 321 11.2
2010-06-23 07:18:21 51°15.461 2°53.965 323.1 13.3 320 11.2
2010-06-23 07:18:26 51°15.475 2°53.946 323.1 13.3 320 11.3
2010-06-23 07:18:31 51°15.489 2°53.927 323.4 13.2 320 11.3
2010-06-23 07:18:36 51°15.503 2°53.909 323.7 13.2 320 11.3
2010-06-23 07:18:41 51°15.517 2°53.89 324 13.2 321 11.4
2010-06-23 07:18:46 51°15.531 2°53.872 324.2 13.2 320 11.4
2010-06-23 07:18:51 51°15.546 2°53.853 324.2 13.2 321 11.4
2010-06-23 07:18:56 51°15.56 2°53.835 324.3 13.2 320 11.7
2010-06-23 07:19:01 51°15.574 2°53.816 324.1 13.2 320 11.9
2010-06-23 07:19:06 51°15.588 2°53.797 324 13.2 320 11.9
2010-06-23 07:19:12 51°15.605 2°53.775 323.9 13.2 320 11.6
2010-06-23 07:19:16 51°15.616 2°53.76 323.9 13.1 320 11.5
2010-06-23 07:19:21 51°15.63 2°53.742 323.9 13.1 321 11.9
2010-06-23 07:19:26 51°15.644 2°53.723 324.3 13.1 320 11.7
2010-06-23 07:19:31 51°15.658 2°53.705 324.3 13.2 321 11.7
2010-06-23 07:19:36 51°15.672 2°53.687 324.5 13.2 321 11.7
2010-06-23 07:19:41 51°15.687 2°53.669 324.5 13.1 321 11.7
2010-06-23 07:19:46 51°15.701 2°53.65 324.5 13.1 321 11.7
2010-06-23 07:19:51 51°15.715 2°53.632 324.4 13.1 321 11.7
2010-06-23 07:19:56 51°15.729 2°53.614 324.3 13.2 321 11.9
2010-06-23 07:20:01 51°15.743 2°53.595 324.3 13.2 321 11.9
2010-06-23 07:20:06 51°15.758 2°53.577 324.1 13.2 321 11.9
2010-06-23 07:20:11 51°15.772 2°53.558 323.8 13.2 321 12
2010-06-23 07:20:16 51°15.786 2°53.54 324 13.2 321 11.9
2010-06-23 07:20:21 51°15.8 2°53.522 324.1 13.1 321 12
2010-06-23 07:20:26 51°15.814 2°53.504 324.1 13.1 321 12
2010-06-23 07:20:31 51°15.828 2°53.485 323.9 13.2 321 12.1
2010-06-23 07:20:36 51°15.843 2°53.466 323.8 13.1 321 12.1
2010-06-23 07:20:40 51°15.854 2°53.452 323.8 13.1 321 12.5
2010-06-23 07:20:46 51°15.871 2°53.43 323.9 13.1 321 12.1
2010-06-23 07:20:51 51°15.885 2°53.412 324.1 13.1 321 12.1
2010-06-23 07:20:56 51°15.899 2°53.394 324.5 13.1 322 12.3
2010-06-23 07:21:01 51°15.913 2°53.376 324.5 13.1 321 12.2
2010-06-23 07:21:06 51°15.927 2°53.358 324.4 13.1 321 12.1
2010-06-23 07:21:11 51°15.942 2°53.34 324.2 13.1 322 12.3
2010-06-23 07:21:16 51°15.956 2°53.322 324.5 13.1 322 12.3
2010-06-23 07:21:21 51°15.97 2°53.304 324.6 13.1 322 12.3
2010-06-23 07:21:26 51°15.984 2°53.286 324.5 13.1 322 12.4
2010-06-23 07:21:31 51°15.999 2°53.268 324.5 13.1 322 12.3
2010-06-23 07:21:36 51°16.013 2°53.25 324.4 13.1 323 12.4
2010-06-23 07:21:41 51°16.027 2°53.233 324.5 13.1 322 12.4
2010-06-23 07:21:46 51°16.042 2°53.217 325.9 13.1 326 12.3
2010-06-23 07:21:51 51°16.057 2°53.2 327.1 13.1 325 12.5
2010-06-23 07:21:56 51°16.072 2°53.184 328 13.1 327 12.5
2010-06-23 07:22:01 51°16.087 2°53.168 328.3 13.1 327 12.5
2010-06-23 07:22:06 51°16.103 2°53.154 329.9 13.1 329 12.4
2010-06-23 07:22:11 51°16.118 2°53.138 330.7 13.1 329 12.5
2010-06-23 07:22:16 51°16.134 2°53.124 331.8 13.1 331 12.5
2010-06-23 07:22:21 51°16.15 2°53.109 332.2 13.1 330 12.5
2010-06-23 07:22:26 51°16.166 2°53.096 333.1 13.1 332 12.5
2010-06-23 07:22:31 51°16.182 2°53.082 333.3 13.1 332 12.5
2010-06-23 07:22:36 51°16.199 2°53.07 334.4 13.1 334 12.6
2010-06-23 07:22:41 51°16.215 2°53.057 335.4 13.1 334 12.7
2010-06-23 07:22:46 51°16.232 2°53.045 336.5 13.1 336 12.7
2010-06-23 07:22:51 51°16.248 2°53.033 337.4 13.1 337 12.8
2010-06-23 07:22:56 51°16.265 2°53.022 338.4 13.1 337 12.7
2010-06-23 07:23:01 51°16.282 2°53.011 338.9 13.1 338 12.8
2010-06-23 07:23:06 51°16.299 2°53 339.6 13.2 338 12.8
2010-06-23 07:23:11 51°16.316 2°52.989 339.8 13.2 339 12.8
2010-06-23 07:23:16 51°16.333 2°52.978 340.3 13.2 339 12.7
2010-06-23 07:23:21 51°16.35 2°52.968 340.5 13.2 339 12.7
2010-06-23 07:23:26 51°16.367 2°52.957 340.6 13.2 339 12.7
2010-06-23 07:23:31 51°16.384 2°52.946 340.6 13.2 338 12.8
2010-06-23 07:23:36 51°16.401 2°52.936 340.2 13.2 338 12.7
2010-06-23 07:23:40 51°16.414 2°52.927 340.3 13.1 338 12.6
2010-06-23 07:23:46 51°16.434 2°52.914 340.3 13.2 338 12.7
2010-06-23 07:23:51 51°16.451 2°52.903 340 13.2 337 12.6
2010-06-23 07:23:56 51°16.468 2°52.891 339.8 13.2 338 12.6
2010-06-23 07:24:01 51°16.485 2°52.88 339.8 13.1 337 12.5
2010-06-23 07:24:06 51°16.502 2°52.869 339.8 13.1 337 12.5
2010-06-23 07:24:12 51°16.522 2°52.855 339.8 13.1 337 12.4
2010-06-23 07:24:16 51°16.535 2°52.845 338.9 13.1 336 12.5
2010-06-23 07:24:21 51°16.551 2°52.834 338.4 13.1 336 12.3
2010-06-23 07:24:26 51°16.568 2°52.821 337.6 13.1 335 12.3
2010-06-23 07:24:31 51°16.584 2°52.809 337.1 13.1 335 12.1
2010-06-23 07:24:36 51°16.601 2°52.796 337 13.1 334 12.1
2010-06-23 07:24:41 51°16.617 2°52.784 336.8 13.1 335 12.3
2010-06-23 07:24:46 51°16.634 2°52.772 336.8 13.1 335 11.9
2010-06-23 07:24:51 51°16.65 2°52.759 336.9 13.1 334 11.9
2010-06-23 07:24:56 51°16.666 2°52.746 336.8 13 334 11.7
2010-06-23 07:25:01 51°16.683 2°52.734 336.4 13.1 334 11.8
2010-06-23 07:25:06 51°16.699 2°52.721 336.4 13.1 335 11.5
2010-06-23 07:25:11 51°16.715 2°52.709 336.8 13 334 11.5
2010-06-23 07:25:16 51°16.732 2°52.697 336.7 13 335 10.9
2010-06-23 07:25:21 51°16.748 2°52.684 336.9 13 335 10.8
2010-06-23 07:25:26 51°16.764 2°52.672 337.1 12.9 335 10.7
2010-06-23 07:25:31 51°16.781 2°52.66 337.1 12.9 335 10.7
2010-06-23 07:25:36 51°16.797 2°52.648 337.2 12.9 334 10.8
2010-06-23 07:25:41 51°16.813 2°52.635 336.9 13 335 10.8
2010-06-23 07:25:46 51°16.829 2°52.623 336.7 13 334 10.6
2010-06-23 07:25:51 51°16.845 2°52.61 336.5 13 334 10.5
2010-06-23 07:25:56 51°16.862 2°52.598 336.5 13 334 10.5
2010-06-23 07:26:01 51°16.878 2°52.585 336.6 13 334 10.7
2010-06-23 07:26:06 51°16.894 2°52.573 336.9 13 334 10.8
2010-06-23 07:26:12 51°16.914 2°52.557 336.9 13 334 10.8
2010-06-23 07:26:16 51°16.926 2°52.547 336.7 13 334 10.7
2010-06-23 07:26:21 51°16.943 2°52.535 336.7 13 334 10.8
2010-06-23 07:26:26 51°16.959 2°52.522 336.7 13 334 10.8
2010-06-23 07:26:31 51°16.975 2°52.51 336.6 13 334 10.6
2010-06-23 07:26:36 51°16.991 2°52.497 336.4 13 334 10.6
2010-06-23 07:26:41 51°17.008 2°52.484 336.5 13 334 10.6
2010-06-23 07:26:46 51°17.024 2°52.472 336.5 13 334 10.6
2010-06-23 07:26:51 51°17.04 2°52.459 336.6 13 335 10.6
2010-06-23 07:26:56 51°17.056 2°52.447 336.8 13 334 10.6
2010-06-23 07:27:01 51°17.073 2°52.434 336.8 13 334 10.7
2010-06-23 07:27:06 51°17.089 2°52.422 336.7 13 334 10.8
2010-06-23 07:27:11 51°17.105 2°52.409 336.4 13 333 10.8
2010-06-23 07:27:16 51°17.121 2°52.396 336.2 13 334 11
2010-06-23 07:27:21 51°17.138 2°52.384 336.6 13.1 334 11
2010-06-23 07:27:26 51°17.154 2°52.371 336.6 13.1 334 11
2010-06-23 07:27:31 51°17.17 2°52.358 336.6 13.1 334 11.2
2010-06-23 07:27:36 51°17.187 2°52.345 336.5 13.1 334 11.1
2010-06-23 07:27:41 51°17.203 2°52.332 336.2 13.1 334 11.2
2010-06-23 07:27:47 51°17.222 2°52.317 336.4 13 334 11.2
2010-06-23 07:27:51 51°17.235 2°52.307 336.5 13.1 334 11.3
2010-06-23 07:27:56 51°17.252 2°52.295 336.2 13.1 335 11.7
2010-06-23 07:28:01 51°17.268 2°52.282 336.6 13.1 334 11.4
2010-06-23 07:28:06 51°17.285 2°52.27 336.6 13.1 334 11.5
2010-06-23 07:28:11 51°17.301 2°52.257 336.8 13.1 333 11.7
2010-06-23 07:28:16 51°17.317 2°52.244 336.3 13.1 333 12
2010-06-23 07:28:21 51°17.334 2°52.23 336 13.2 333 12.3
2010-06-23 07:28:26 51°17.35 2°52.218 335.7 13.1 334 12.1
2010-06-23 07:28:32 51°17.369 2°52.202 335.9 13.1 333 12.3
2010-06-23 07:28:36 51°17.382 2°52.191 335.9 13.1 334 12.2
2010-06-23 07:28:41 51°17.399 2°52.179 336.2 13.1 334 12.2
2010-06-23 07:28:46 51°17.415 2°52.166 336.4 13.1 334 12.3
2010-06-23 07:28:51 51°17.431 2°52.154 336.7 13.1 334 12.2
2010-06-23 07:28:56 51°17.448 2°52.141 336.7 13 334 12.1
2010-06-23 07:29:01 51°17.464 2°52.128 336.6 13.1 334 12.1
2010-06-23 07:29:06 51°17.48 2°52.116 336.4 13.1 334 12.1
2010-06-23 07:29:11 51°17.496 2°52.103 336.4 13 334 12.3
2010-06-23 07:29:16 51°17.513 2°52.09 336.3 13 334 12.7
2010-06-23 07:29:21 51°17.529 2°52.078 336.2 13 334 12.2
2010-06-23 07:29:26 51°17.545 2°52.065 336.5 13 335 12.1
2010-06-23 07:29:31 51°17.561 2°52.052 336.6 13 334 12.1
2010-06-23 07:29:36 51°17.577 2°52.04 336.7 13 335 12.1
2010-06-23 07:29:41 51°17.594 2°52.028 336.8 13 334 12.1
2010-06-23 07:29:46 51°17.61 2°52.015 336.6 13 334 11.8
2010-06-23 07:29:51 51°17.626 2°52.002 336.5 13 334 11.5
2010-06-23 07:29:56 51°17.642 2°51.99 336.4 13 334 11.4
2010-06-23 07:30:01 51°17.658 2°51.977 336.2 12.9 333 11.3
2010-06-23 07:30:06 51°17.675 2°51.965 336.2 13 334 11.4
2010-06-23 07:30:11 51°17.691 2°51.952 336.4 13 334 11.4
2010-06-23 07:30:16 51°17.707 2°51.94 336.6 13 335 11.2
2010-06-23 07:30:21 51°17.723 2°51.927 336.7 13 334 11.2
2010-06-23 07:30:26 51°17.739 2°51.915 336.5 12.9 334 11.2
2010-06-23 07:30:31 51°17.755 2°51.903 336.3 12.9 334 11.1
2010-06-23 07:30:36 51°17.771 2°51.89 336.3 13 334 11.2
2010-06-23 07:30:41 51°17.788 2°51.878 336.3 13 334 11.2
2010-06-23 07:30:46 51°17.804 2°51.866 336.4 13 335 11.2
2010-06-23 07:30:51 51°17.82 2°51.853 336.5 12.9 334 11
2010-06-23 07:30:56 51°17.836 2°51.84 336.2 13 334 11.2
2010-06-23 07:31:00 51°17.849 2°51.831 336.5 13 335 11.2
2010-06-23 07:31:06 51°17.869 2°51.816 336.5 13 334 11.2
2010-06-23 07:31:11 51°17.885 2°51.803 336.3 13 335 11.2
2010-06-23 07:31:16 51°17.901 2°51.791 336.4 13 334 11.1
2010-06-23 07:31:21 51°17.917 2°51.779 336.7 13 335 11.4
2010-06-23 07:31:26 51°17.934 2°51.766 336.7 13 335 11.3
2010-06-23 07:31:31 51°17.95 2°51.755 336.6 13 335 11.4
2010-06-23 07:31:36 51°17.967 2°51.742 336.5 13 334 11.5
2010-06-23 07:31:41 51°17.983 2°51.73 336.5 13 335 11.4
2010-06-23 07:31:46 51°17.999 2°51.717 336.5 13 334 11.4
2010-06-23 07:31:51 51°18.015 2°51.705 336.1 13 334 11.6
2010-06-23 07:31:56 51°18.032 2°51.692 336.1 13 334 11.7
2010-06-23 07:32:01 51°18.048 2°51.68 336.2 13 334 11.6
2010-06-23 07:32:06 51°18.064 2°51.667 336.4 13 335 11.9
2010-06-23 07:32:11 51°18.08 2°51.654 336.7 13 334 11.9
2010-06-23 07:32:16 51°18.096 2°51.642 336.4 13 334 12.1
2010-06-23 07:32:21 51°18.112 2°51.629 336.2 13 334 12.1
2010-06-23 07:32:26 51°18.128 2°51.616 336.2 13 334 12.4
2010-06-23 07:32:31 51°18.144 2°51.603 336.2 13 334 12.1
2010-06-23 07:32:36 51°18.161 2°51.59 336.2 13 334 12.2
2010-06-23 07:32:41 51°18.177 2°51.578 336.3 13 334 12.9
2010-06-23 07:32:46 51°18.193 2°51.565 336.3 13 334 12.6
2010-06-23 07:32:51 51°18.209 2°51.552 336.2 13 333 12.7
2010-06-23 07:32:56 51°18.225 2°51.539 336 13 333 12.8
2010-06-23 07:33:01 51°18.241 2°51.525 334.3 13 330 12.9
2010-06-23 07:33:06 51°18.257 2°51.511 333.2 13 330 12.9
2010-06-23 07:33:12 51°18.275 2°51.493 332 12.9 329 13
2010-06-23 07:33:16 51°18.288 2°51.482 331.3 13 328 13.2
2010-06-23 07:33:21 51°18.303 2°51.466 330.3 13 327 13.3
2010-06-23 07:33:26 51°18.318 2°51.45 329.9 13 327 13.2
2010-06-23 07:33:31 51°18.333 2°51.434 329.3 13 326 13.4
2010-06-23 07:33:36 51°18.348 2°51.419 328.9 13 327 13.6
2010-06-23 07:33:41 51°18.363 2°51.402 328.6 13 326 13.6
2010-06-23 07:33:46 51°18.378 2°51.387 328.3 13 326 13.7
2010-06-23 07:33:51 51°18.393 2°51.371 328.3 13 326 14
2010-06-23 07:33:56 51°18.408 2°51.355 328.5 13 326 14
2010-06-23 07:34:01 51°18.423 2°51.339 328.5 13 326 14.1
2010-06-23 07:34:06 51°18.438 2°51.323 328.5 13 326 14.3
2010-06-23 07:34:11 51°18.453 2°51.307 328.4 13 326 14.2
2010-06-23 07:34:16 51°18.468 2°51.291 328.2 13 326 14.4
2010-06-23 07:34:21 51°18.483 2°51.275 328.2 13 326 14.5
2010-06-23 07:34:26 51°18.498 2°51.258 328.3 13 326 14.6
2010-06-23 07:34:31 51°18.513 2°51.243 328.7 13 326 14.7
2010-06-23 07:34:36 51°18.528 2°51.227 328.6 13 327 14.8
2010-06-23 07:34:41 51°18.544 2°51.211 328.8 13 327 14.9
2010-06-23 07:34:46 51°18.559 2°51.195 328.8 13.1 326 14.9
2010-06-23 07:34:51 51°18.574 2°51.179 328.6 13.1 327 15.1
2010-06-23 07:34:56 51°18.589 2°51.163 328.8 13 327 15
2010-06-23 07:35:01 51°18.604 2°51.147 329 13.1 327 15.1
2010-06-23 07:35:06 51°18.619 2°51.131 329 13.1 327 15.2
2010-06-23 07:35:12 51°18.638 2°51.112 329.1 13.1 327 15.1
2010-06-23 07:35:16 51°18.65 2°51.1 328.9 13.1 327 15.1
2010-06-23 07:35:21 51°18.665 2°51.084 328.9 13.1 327 15.4
2010-06-23 07:35:26 51°18.68 2°51.068 328.9 13.1 327 15.3
2010-06-23 07:35:31 51°18.695 2°51.052 329 13.1 326 15.3
2010-06-23 07:35:36 51°18.71 2°51.036 329 13.1 327 15.5
2010-06-23 07:35:41 51°18.725 2°51.02 329 13.1 327 15.5
2010-06-23 07:35:46 51°18.741 2°51.004 329 13.1 327 15.5
2010-06-23 07:35:51 51°18.756 2°50.988 329 13.1 327 15.5
2010-06-23 07:35:56 51°18.771 2°50.972 329.1 13.1 326 15.7
2010-06-23 07:36:01 51°18.786 2°50.956 328.9 13.1 326 15.7
2010-06-23 07:36:06 51°18.801 2°50.94 328.8 13.1 326 15.8
2010-06-23 07:36:11 51°18.816 2°50.924 328.8 13.1 327 15.7
2010-06-23 07:36:16 51°18.832 2°50.909 329.1 13.1 327 15.8
2010-06-23 07:36:21 51°18.847 2°50.893 329.1 13.1 327 15.7
2010-06-23 07:36:26 51°18.862 2°50.877 329.1 13.1 327 15.8
2010-06-23 07:36:31 51°18.878 2°50.862 329.1 13.1 327 15.8
2010-06-23 07:36:36 51°18.893 2°50.846 329.2 13.1 327 15.8
2010-06-23 07:36:41 51°18.908 2°50.831 329.2 13.1 327 15.9
2010-06-23 07:36:46 51°18.924 2°50.815 329.2 13.1 327 15.8
2010-06-23 07:36:51 51°18.939 2°50.799 329.2 13.1 327 15.9
2010-06-23 07:36:56 51°18.954 2°50.783 328.9 13.1 327 16
2010-06-23 07:37:01 51°18.969 2°50.767 328.9 13.1 327 15.8
2010-06-23 07:37:06 51°18.984 2°50.751 329 13.1 327 15.7
2010-06-23 07:37:12 51°19.003 2°50.732 328.9 13.2 327 15.8
2010-06-23 07:37:16 51°19.015 2°50.719 328.8 13.2 327 15.7
2010-06-23 07:37:21 51°19.03 2°50.703 328.8 13.2 327 15.8
2010-06-23 07:37:26 51°19.046 2°50.687 328.9 13.2 327 15.6
2010-06-23 07:37:31 51°19.061 2°50.672 328.9 13.2 328 15.7
2010-06-23 07:37:36 51°19.077 2°50.656 329.1 13.1 328 15.5
2010-06-23 07:37:41 51°19.092 2°50.641 329.3 13.1 329 15.5
2010-06-23 07:37:46 51°19.107 2°50.626 329.5 13.1 329 15.5
2010-06-23 07:37:51 51°19.123 2°50.611 329.3 13.1 328 15.3
2010-06-23 07:37:56 51°19.139 2°50.596 329.1 13.1 328 15.1
2010-06-23 07:38:01 51°19.154 2°50.58 328.9 13.1 327 15
2010-06-23 07:38:06 51°19.169 2°50.565 328.8 13.1 328 14.7
2010-06-23 07:38:11 51°19.185 2°50.549 328.9 13.1 327 14.7
2010-06-23 07:38:16 51°19.2 2°50.534 329 13.1 328 14.5
2010-06-23 07:38:21 51°19.215 2°50.519 329.1 13.1 328 14.2
2010-06-23 07:38:26 51°19.231 2°50.504 329.3 13.1 329 14.3
2010-06-23 07:38:31 51°19.246 2°50.488 329.4 13.1 329 14
2010-06-23 07:38:36 51°19.262 2°50.473 329.4 13.1 329 14.2
2010-06-23 07:38:40 51°19.274 2°50.461 329.1 13.1 329 14
2010-06-23 07:38:46 51°19.293 2°50.443 329.3 13.1 329 13.9
2010-06-23 07:38:51 51°19.308 2°50.428 329.3 13.1 328 13.8
2010-06-23 07:38:56 51°19.323 2°50.412 328.9 13.1 328 13.7
2010-06-23 07:39:01 51°19.339 2°50.397 328.8 13.1 328 13.4
2010-06-23 07:39:06 51°19.354 2°50.382 328.8 13 328 13.1
2010-06-23 07:39:11 51°19.369 2°50.366 329.1 13 328 12.9
2010-06-23 07:39:16 51°19.385 2°50.351 329 13 328 12.7
2010-06-23 07:39:21 51°19.4 2°50.336 329.1 13 328 13
2010-06-23 07:39:26 51°19.415 2°50.32 329.1 13 326 13
2010-06-23 07:39:31 51°19.43 2°50.303 327.6 13 325 13
2010-06-23 07:39:36 51°19.445 2°50.287 326.8 13 325 12.9
2010-06-23 07:39:41 51°19.459 2°50.27 326 13 323 13
2010-06-23 07:39:46 51°19.474 2°50.253 325.6 13 323 12.9
2010-06-23 07:39:52 51°19.491 2°50.232 324.9 13 323 13.2
2010-06-23 07:39:56 51°19.502 2°50.218 324.5 13 322 13.2
2010-06-23 07:40:00 51°19.514 2°50.203 324.1 13 323 13.4
2010-06-23 07:40:06 51°19.531 2°50.183 324 13 322 13.2
2010-06-23 07:40:11 51°19.545 2°50.165 323.8 13.1 323 13.3
2010-06-23 07:40:16 51°19.56 2°50.147 323.7 13 322 13.4
2010-06-23 07:40:21 51°19.574 2°50.13 323.6 13 323 13.6
2010-06-23 07:40:26 51°19.588 2°50.112 323.6 13 322 13.9
2010-06-23 07:40:31 51°19.602 2°50.094 323.8 13 323 14.2
2010-06-23 07:40:36 51°19.617 2°50.077 324.1 13 322 14.3
2010-06-23 07:40:41 51°19.631 2°50.059 323.8 13.1 322 14.9
2010-06-23 07:40:46 51°19.645 2°50.041 323.8 13.1 322 15.2
2010-06-23 07:40:51 51°19.66 2°50.024 323.9 13.1 322 15.5
2010-06-23 07:40:56 51°19.674 2°50.006 323.9 13.1 322 15.6
2010-06-23 07:41:01 51°19.688 2°49.988 323.9 13.1 322 15.8
2010-06-23 07:41:06 51°19.703 2°49.97 323.8 13.1 322 16
2010-06-23 07:41:11 51°19.717 2°49.952 323.6 13.1 322 16
2010-06-23 07:41:16 51°19.731 2°49.934 323.8 13.1 322 16
2010-06-23 07:41:21 51°19.746 2°49.916 323.7 13.1 322 16.2
2010-06-23 07:41:26 51°19.76 2°49.899 323.4 13.1 322 16.2
2010-06-23 07:41:31 51°19.774 2°49.881 323.8 13.1 322 16.2
2010-06-23 07:41:36 51°19.789 2°49.863 323.8 13.1 322 16.5
2010-06-23 07:41:41 51°19.803 2°49.845 323.8 13.1 322 16.4
2010-06-23 07:41:46 51°19.818 2°49.827 323.9 13.1 323 16.4
2010-06-23 07:41:51 51°19.832 2°49.81 324.3 13.1 322 16.6
2010-06-23 07:41:56 51°19.847 2°49.792 324.2 13.1 323 16.9
2010-06-23 07:42:01 51°19.861 2°49.774 324 13.1 322 17.2
2010-06-23 07:42:06 51°19.875 2°49.757 323.9 13.1 323 17.4
2010-06-23 07:42:11 51°19.89 2°49.739 324.3 13.2 323 17.7
2010-06-23 07:42:16 51°19.905 2°49.722 324.5 13.2 323 17.9
2010-06-23 07:42:21 51°19.919 2°49.704 324.5 13.2 322 18.1
2010-06-23 07:42:26 51°19.934 2°49.686 324.1 13.2 323 18.4
2010-06-23 07:42:31 51°19.948 2°49.668 324.1 13.2 322 18.5
2010-06-23 07:42:36 51°19.962 2°49.65 324 13.2 322 18.8
2010-06-23 07:42:41 51°19.977 2°49.633 323.8 13.2 323 18.9
2010-06-23 07:42:46 51°19.992 2°49.615 323.9 13.2 322 19.1
2010-06-23 07:42:51 51°20.006 2°49.597 324.1 13.2 323 19.3
2010-06-23 07:42:56 51°20.021 2°49.579 324.3 13.2 322 19.6
2010-06-23 07:43:01 51°20.035 2°49.562 324 13.2 323 19.8
2010-06-23 07:43:06 51°20.05 2°49.544 324.1 13.2 322 20.1
2010-06-23 07:43:11 51°20.064 2°49.526 324.2 13.3 323 20.3
2010-06-23 07:43:16 51°20.079 2°49.508 324.2 13.3 323 20.6
2010-06-23 07:43:21 51°20.094 2°49.49 324.2 13.3 322 20.7
2010-06-23 07:43:26 51°20.108 2°49.473 324.1 13.3 323 21.1
2010-06-23 07:43:31 51°20.123 2°49.455 324.1 13.3 323 21.3
2010-06-23 07:43:36 51°20.138 2°49.437 324.2 13.3 323 21.6
2010-06-23 07:43:41 51°20.152 2°49.419 324.4 13.3 323 21.8
2010-06-23 07:43:46 51°20.167 2°49.401 324.4 13.3 322 22
2010-06-23 07:43:51 51°20.182 2°49.383 324.3 13.3 322 22.2
2010-06-23 07:43:56 51°20.196 2°49.365 324.2 13.3 322 22.5
2010-06-23 07:44:01 51°20.211 2°49.347 324 13.3 322 22.6
2010-06-23 07:44:06 51°20.226 2°49.329 323.8 13.4 323 22.8
2010-06-23 07:44:11 51°20.24 2°49.311 323.8 13.3 323 23
2010-06-23 07:44:16 51°20.255 2°49.293 324.4 13.3 323 23.1
2010-06-23 07:44:21 51°20.27 2°49.275 324.4 13.3 323 23.3
2010-06-23 07:44:26 51°20.285 2°49.257 324.4 13.4 323 23.4
2010-06-23 07:44:31 51°20.299 2°49.239 324.1 13.4 322 23.5
2010-06-23 07:44:36 51°20.314 2°49.221 323.8 13.4 323 23.7
2010-06-23 07:44:40 51°20.326 2°49.206 324 13.4 322 23.7
2010-06-23 07:44:46 51°20.344 2°49.185 324.1 13.4 323 23.9
2010-06-23 07:44:51 51°20.358 2°49.167 324.5 13.4 322 23.8
2010-06-23 07:44:56 51°20.373 2°49.149 324.5 13.4 323 23.9
2010-06-23 07:45:01 51°20.388 2°49.131 324.4 13.4 323 23.6
2010-06-23 07:45:06 51°20.403 2°49.113 324.4 13.4 323 23.9
2010-06-23 07:45:11 51°20.418 2°49.095 324.5 13.4 323 23.9
2010-06-23 07:45:16 51°20.433 2°49.077 324.6 13.5 323 23.8
2010-06-23 07:45:21 51°20.448 2°49.059 324.4 13.5 323 23.9
2010-06-23 07:45:26 51°20.463 2°49.042 324.4 13.5 324 24
2010-06-23 07:45:31 51°20.478 2°49.023 324.5 13.5 322 23.8
2010-06-23 07:45:36 51°20.493 2°49.005 324.2 13.5 323 24
2010-06-23 07:45:41 51°20.508 2°48.988 324.5 13.5 323 23.9
2010-06-23 07:45:46 51°20.523 2°48.97 324.5 13.5 323 24
2010-06-23 07:45:51 51°20.538 2°48.951 324.3 13.4 323 23.9
2010-06-23 07:45:56 51°20.553 2°48.934 324.2 13.5 323 24
2010-06-23 07:46:01 51°20.568 2°48.916 324.2 13.5 323 23.9
2010-06-23 07:46:06 51°20.583 2°48.898 324.3 13.5 323 23.8
2010-06-23 07:46:11 51°20.598 2°48.88 324.5 13.5 323 23.8
2010-06-23 07:46:16 51°20.613 2°48.862 324.1 13.5 323 23.7
2010-06-23 07:46:21 51°20.628 2°48.844 324.2 13.5 323 23.9
2010-06-23 07:46:26 51°20.643 2°48.826 324.2 13.5 323 23.9
2010-06-23 07:46:31 51°20.658 2°48.808 324.1 13.5 323 23.8
2010-06-23 07:46:36 51°20.673 2°48.79 323.8 13.5 323 23.7
2010-06-23 07:46:41 51°20.688 2°48.772 324 13.5 324 23.5
2010-06-23 07:46:46 51°20.703 2°48.755 324.5 13.5 323 23.5
2010-06-23 07:46:51 51°20.718 2°48.737 324.2 13.5 324 23.5
2010-06-23 07:46:56 51°20.733 2°48.719 324.3 13.5 324 23.4
2010-06-23 07:47:01 51°20.748 2°48.701 324.5 13.5 324 23.3
2010-06-23 07:47:06 51°20.763 2°48.684 324.5 13.5 324 23.3
2010-06-23 07:47:11 51°20.778 2°48.666 324.3 13.5 324 23
2010-06-23 07:47:16 51°20.793 2°48.649 324.4 13.5 325 22.9
2010-06-23 07:47:21 51°20.808 2°48.631 324.5 13.5 323 22.8
2010-06-23 07:47:26 51°20.823 2°48.613 324.3 13.5 324 22.6
2010-06-23 07:47:31 51°20.838 2°48.596 324.2 13.4 323 22.5
2010-06-23 07:47:36 51°20.853 2°48.578 323.8 13.5 323 22.4
2010-06-23 07:47:40 51°20.865 2°48.564 323.9 13.4 324 22.3
2010-06-23 07:47:46 51°20.883 2°48.543 324 13.4 324 22.2
2010-06-23 07:47:51 51°20.898 2°48.526 324.2 13.4 324 22.2
2010-06-23 07:47:56 51°20.913 2°48.508 323.8 13.3 323 21.9
2010-06-23 07:48:01 51°20.928 2°48.491 323.8 13.2 324 22
2010-06-23 07:48:06 51°20.942 2°48.473 324 13.2 323 21.7
2010-06-23 07:48:11 51°20.957 2°48.456 323.7 13.1 325 21.6
2010-06-23 07:48:16 51°20.972 2°48.439 324.1 13.1 324 21.5
2010-06-23 07:48:21 51°20.987 2°48.422 324.1 13.1 325 21.6
2010-06-23 07:48:26 51°21.002 2°48.405 324.3 13.1 324 21.6
2010-06-23 07:48:31 51°21.016 2°48.388 324.4 13.1 324 21.6
2010-06-23 07:48:36 51°21.031 2°48.371 324.3 13.1 324 21.6
2010-06-23 07:48:41 51°21.046 2°48.355 324.5 13.1 325 21.5
2010-06-23 07:48:46 51°21.061 2°48.338 324.5 13.1 324 21.4
2010-06-23 07:48:51 51°21.075 2°48.321 324.5 13.1 325 21.5
2010-06-23 07:48:56 51°21.09 2°48.304 324.4 13.1 324 21.6
2010-06-23 07:49:00 51°21.102 2°48.29 324.4 13.1 325 21.6
2010-06-23 07:49:06 51°21.119 2°48.27 324.5 13.1 324 21.6
2010-06-23 07:49:11 51°21.134 2°48.253 324.2 13.1 324 21.3
2010-06-23 07:49:16 51°21.149 2°48.236 324.3 13.1 324 21.2
2010-06-23 07:49:21 51°21.164 2°48.219 324.2 13.1 324 21.5
2010-06-23 07:49:26 51°21.178 2°48.202 324.1 13.1 324 21.8
2010-06-23 07:49:31 51°21.193 2°48.185 323.8 13.1 324 22.3
2010-06-23 07:49:36 51°21.207 2°48.168 323.8 13.1 324 22.5
2010-06-23 07:49:40 51°21.219 2°48.154 324 13.2 324 22.6
2010-06-23 07:49:46 51°21.237 2°48.134 324.1 13.1 324 22.8
2010-06-23 07:49:51 51°21.252 2°48.117 324.1 13.1 324 22.9
2010-06-23 07:49:56 51°21.267 2°48.1 324.1 13.1 324 23.3
2010-06-23 07:50:00 51°21.278 2°48.086 324 13.1 324 23.5
2010-06-23 07:50:06 51°21.296 2°48.066 324 13.1 324 23.7
2010-06-23 07:50:11 51°21.311 2°48.049 324 13.2 324 23.7
2010-06-23 07:50:16 51°21.326 2°48.032 324 13.2 324 23.7
2010-06-23 07:50:20 51°21.338 2°48.018 324.1 13.1 324 23.5
2010-06-23 07:50:26 51°21.355 2°47.998 324.1 13.1 324 23.6
2010-06-23 07:50:31 51°21.37 2°47.981 324.1 13.1 324 23.3
2010-06-23 07:50:36 51°21.385 2°47.964 324.2 13.1 324 22.9
2010-06-23 07:50:40 51°21.397 2°47.95 324.2 13.1 324 23.1
2010-06-23 07:50:46 51°21.414 2°47.93 324.1 13.1 324 23.4
2010-06-23 07:50:51 51°21.429 2°47.913 324.1 13.1 324 23.5
2010-06-23 07:50:56 51°21.444 2°47.896 324 13.1 325 24.2
2010-06-23 07:51:00 51°21.456 2°47.882 323.8 13.1 324 23.9
2010-06-23 07:51:06 51°21.474 2°47.864 325 13.1 329 24.4
2010-06-23 07:51:11 51°21.489 2°47.847 326.3 13.1 325 23.9
2010-06-23 07:51:16 51°21.504 2°47.832 326.9 13.1 330 24.1
2010-06-23 07:51:20 51°21.517 2°47.82 327.7 13.1 327 23.7
2010-06-23 07:51:26 51°21.535 2°47.802 328.2 13.1 330 23.9
2010-06-23 07:51:31 51°21.551 2°47.787 328.8 13.1 329 23.7
2010-06-23 07:51:36 51°21.567 2°47.773 329.2 13.1 330 24
2010-06-23 07:51:40 51°21.579 2°47.761 329.2 13.1 330 24.8
2010-06-23 07:51:46 51°21.598 2°47.744 329.7 13.1 330 25
2010-06-23 07:51:51 51°21.614 2°47.729 329.6 13.1 330 25.4
2010-06-23 07:51:56 51°21.63 2°47.715 329.6 13.1 330 25.2
2010-06-23 07:52:00 51°21.642 2°47.703 329.7 13.2 331 25.6
2010-06-23 07:52:06 51°21.661 2°47.686 330.2 13.1 330 25.6
2010-06-23 07:52:11 51°21.677 2°47.672 330.3 13.2 330 25.6
2010-06-23 07:52:16 51°21.693 2°47.657 330 13.2 330 25.6
2010-06-23 07:52:20 51°21.706 2°47.646 329.9 13.1 330 25.4
2010-06-23 07:52:26 51°21.724 2°47.628 329.8 13.2 329 25.4
2010-06-23 07:52:31 51°21.74 2°47.613 329.6 13.1 330 25.6
2010-06-23 07:52:36 51°21.756 2°47.599 329.5 13.2 329 25.7
2010-06-23 07:52:40 51°21.769 2°47.587 329.5 13.1 331 25.5
2010-06-23 07:52:46 51°21.788 2°47.57 330 13.1 331 25.1
2010-06-23 07:52:51 51°21.804 2°47.556 330.3 13.1 331 24.9
2010-06-23 07:52:56 51°21.819 2°47.541 330.2 13.1 330 25.1
2010-06-23 07:53:00 51°21.832 2°47.53 330.1 13.1 330 24.6
2010-06-23 07:53:06 51°21.851 2°47.512 329.9 13.2 330 25
2010-06-23 07:53:11 51°21.867 2°47.498 330 13.1 331 25
2010-06-23 07:53:16 51°21.883 2°47.483 330 13.1 330 25.4
2010-06-23 07:53:20 51°21.896 2°47.472 329.8 13.1 330 25.5
2010-06-23 07:53:26 51°21.914 2°47.454 329.5 13.1 329 25.2
2010-06-23 07:53:31 51°21.93 2°47.439 329.3 13.1 330 25.4
2010-06-23 07:53:36 51°21.946 2°47.424 329.4 13.1 329 25.6
2010-06-23 07:53:40 51°21.958 2°47.412 329.3 13.1 330 25.8
2010-06-23 07:53:46 51°21.977 2°47.394 329.4 13.1 330 25.7
2010-06-23 07:53:51 51°21.993 2°47.38 329.8 13.1 330 25.5
2010-06-23 07:53:56 51°22.009 2°47.365 329.8 13.1 330 25.4
2010-06-23 07:54:00 51°22.021 2°47.354 329.6 13.1 330 25.2
2010-06-23 07:54:06 51°22.04 2°47.336 329.7 13.1 329 25
2010-06-23 07:54:11 51°22.056 2°47.321 329.4 13.1 329 25
2010-06-23 07:54:16 51°22.071 2°47.306 329.4 13.1 330 25
2010-06-23 07:54:20 51°22.084 2°47.294 329.4 13.1 329 24.8
2010-06-23 07:54:26 51°22.103 2°47.276 329.3 13.2 329 24.6
2010-06-23 07:54:31 51°22.118 2°47.261 329.1 13.1 328 24.3
2010-06-23 07:54:36 51°22.134 2°47.247 329.3 13.1 330 24.4
2010-06-23 07:54:40 51°22.146 2°47.233 328.2 13.1 325 24.3
2010-06-23 07:54:46 51°22.164 2°47.215 327.1 13.1 328 24.1
2010-06-23 07:54:51 51°22.179 2°47.198 326 13 324 23.5
2010-06-23 07:54:56 51°22.194 2°47.182 325.2 13.1 326 22.9
2010-06-23 07:55:00 51°22.206 2°47.167 324.3 13.1 323 22.5
2010-06-23 07:55:06 51°22.223 2°47.147 324 13.1 324 21.3
2010-06-23 07:55:11 51°22.238 2°47.129 323.6 13.1 322 21
2010-06-23 07:55:16 51°22.252 2°47.112 323 13.1 323 20.8
2010-06-23 07:55:20 51°22.264 2°47.098 322.6 13.1 322 20.6
2010-06-23 07:55:26 51°22.281 2°47.077 322.4 13.1 323 19.6
2010-06-23 07:55:31 51°22.295 2°47.059 322.6 13.1 322 19.4
2010-06-23 07:55:36 51°22.31 2°47.041 322.5 13.1 322 20.1
2010-06-23 07:55:40 51°22.321 2°47.027 322.4 13.1 322 20.5
2010-06-23 07:55:46 51°22.339 2°47.006 322.4 13.1 323 20.9
2010-06-23 07:55:51 51°22.353 2°46.988 322.6 13.1 323 21.2
2010-06-23 07:55:56 51°22.368 2°46.971 323 13.1 323 21.1
2010-06-23 07:56:00 51°22.379 2°46.957 322.9 13.1 323 20.8
2010-06-23 07:56:06 51°22.397 2°46.936 323.1 13 323 20.5
2010-06-23 07:56:11 51°22.411 2°46.918 323.2 13.1 322 20.7
2010-06-23 07:56:16 51°22.425 2°46.901 322.9 13.1 323 20.9
2010-06-23 07:56:20 51°22.437 2°46.887 323.1 13.1 323 20.9
2010-06-23 07:56:26 51°22.454 2°46.866 323.1 13 323 21.1
2010-06-23 07:56:31 51°22.469 2°46.848 323 13.1 323 21
2010-06-23 07:56:36 51°22.483 2°46.83 322.6 13.1 322 21.5
2010-06-23 07:56:40 51°22.495 2°46.816 322.6 13.1 323 21.6
2010-06-23 07:56:46 51°22.512 2°46.795 322.9 13.1 323 21.5
2010-06-23 07:56:51 51°22.526 2°46.777 322.9 13.1 322 21.6
2010-06-23 07:56:56 51°22.541 2°46.76 322.8 13.1 323 21.7
2010-06-23 07:57:00 51°22.552 2°46.746 323.1 13.1 322 21.6
2010-06-23 07:57:06 51°22.57 2°46.725 322.7 13.1 323 21.7
2010-06-23 07:57:11 51°22.584 2°46.707 323 13.1 323 21.6
2010-06-23 07:57:16 51°22.599 2°46.69 322.8 13.1 323 20.7
2010-06-23 07:57:20 51°22.61 2°46.676 322.8 13.1 323 20
2010-06-23 07:57:26 51°22.628 2°46.655 322.8 13.1 323 18.5
2010-06-23 07:57:31 51°22.642 2°46.638 323 13.1 323 16.8
2010-06-23 07:57:36 51°22.657 2°46.621 323.2 13 324 17.1
2010-06-23 07:57:40 51°22.669 2°46.607 323.4 13 324 18.9
2010-06-23 07:57:46 51°22.686 2°46.587 323.5 13.1 324 19.8
2010-06-23 07:57:51 51°22.701 2°46.57 323.1 13.1 323 20.3
2010-06-23 07:57:56 51°22.715 2°46.552 323.1 13.1 323 20.7
2010-06-23 07:58:00 51°22.727 2°46.538 322.7 13.1 323 21.5
2010-06-23 07:58:06 51°22.744 2°46.517 322.6 13.1 323 22.3
2010-06-23 07:58:11 51°22.758 2°46.499 322.3 13.1 320 22.8
2010-06-23 07:58:16 51°22.772 2°46.481 321.2 13.1 321 23.2
2010-06-23 07:58:20 51°22.784 2°46.466 320.7 13.1 320 23.5
2010-06-23 07:58:26 51°22.8 2°46.443 319.6 13.1 319 23.7
2010-06-23 07:58:31 51°22.814 2°46.425 319.5 13.1 319 23.8
2010-06-23 07:58:36 51°22.827 2°46.405 319.2 13.1 318 23.1
2010-06-23 07:58:40 51°22.839 2°46.39 318.9 13.1 319 22.2
2010-06-23 07:58:46 51°22.855 2°46.367 318.9 13.2 318 24
2010-06-23 07:58:51 51°22.869 2°46.348 318.9 13.2 319 25.2
2010-06-23 07:58:56 51°22.882 2°46.328 318.7 13.2 318 25.4
2010-06-23 07:59:00 51°22.894 2°46.313 318.6 13.2 319 25.8
2010-06-23 07:59:06 51°22.91 2°46.29 318.7 13.2 319 25.8
2010-06-23 07:59:11 51°22.924 2°46.27 319.1 13.2 319 26.1
2010-06-23 07:59:16 51°22.938 2°46.251 319.1 13.2 319 26.5
2010-06-23 07:59:20 51°22.949 2°46.236 319.1 13.2 319 26.5
2010-06-23 07:59:26 51°22.965 2°46.212 318.9 13.2 319 26.1
2010-06-23 07:59:31 51°22.979 2°46.193 319.2 13.2 319 26.3
2010-06-23 07:59:36 51°22.993 2°46.174 319.1 13.2 319 26.2
2010-06-23 07:59:41 51°23.006 2°46.154 319.1 13.2 318 26.4
2010-06-23 07:59:46 51°23.02 2°46.135 318.9 13.2 319 26.6
2010-06-23 07:59:51 51°23.034 2°46.116 318.9 13.2 318 26.8
2010-06-23 07:59:56 51°23.047 2°46.096 318.7 13.2 318 26.8
2010-06-23 08:00:01 51°23.061 2°46.077 318.8 13.2 319 25.8
2010-06-23 08:00:06 51°23.075 2°46.057 319 13.2 318 25.2
2010-06-23 08:00:11 51°23.089 2°46.038 319.1 13.2 319 25
2010-06-23 08:00:16 51°23.103 2°46.019 319.2 13.2 318 25.3
2010-06-23 08:00:21 51°23.117 2°45.999 319 13.2 319 26.3
2010-06-23 08:00:26 51°23.13 2°45.98 319.1 13.2 319 26.9
2010-06-23 08:00:31 51°23.144 2°45.96 319.2 13.2 319 27.2
2010-06-23 08:00:36 51°23.158 2°45.941 319.3 13.2 319 27.1
2010-06-23 08:00:41 51°23.171 2°45.922 319.4 13.2 319 27.5
2010-06-23 08:00:47 51°23.188 2°45.899 319.6 13.2 318 27.9
2010-06-23 08:00:51 51°23.199 2°45.883 319.3 13.2 319 28.1
2010-06-23 08:00:56 51°23.213 2°45.864 319.2 13.2 318 28
2010-06-23 08:01:01 51°23.226 2°45.844 319 13.2 318 26.3
2010-06-23 08:01:06 51°23.24 2°45.824 318.9 13.2 318 27.3
2010-06-23 08:01:11 51°23.254 2°45.805 319.2 13.2 318 27.4
2010-06-23 08:01:16 51°23.267 2°45.785 318.9 13.2 318 26
2010-06-23 08:01:21 51°23.281 2°45.766 319 13.2 318 27.3
2010-06-23 08:01:26 51°23.295 2°45.746 318.9 13.3 318 27.3
2010-06-23 08:01:31 51°23.309 2°45.727 319.2 13.2 319 27.2
2010-06-23 08:01:36 51°23.322 2°45.707 319.3 13.2 318 27.2
2010-06-23 08:01:41 51°23.336 2°45.688 319.2 13.3 319 27.5
2010-06-23 08:01:46 51°23.35 2°45.668 318.9 13.3 318 28
2010-06-23 08:01:52 51°23.366 2°45.644 318.9 13.3 318 28
2010-06-23 08:01:56 51°23.377 2°45.629 318.9 13.3 318 28
2010-06-23 08:02:01 51°23.391 2°45.609 319.1 13.3 318 28.2
2010-06-23 08:02:06 51°23.405 2°45.59 319.4 13.3 319 28.5
2010-06-23 08:02:11 51°23.419 2°45.57 319.4 13.3 318 28
2010-06-23 08:02:16 51°23.433 2°45.551 319.4 13.3 318 28.2
2010-06-23 08:02:21 51°23.446 2°45.531 319.3 13.3 319 28.3
2010-06-23 08:02:26 51°23.46 2°45.512 319.5 13.3 318 28.2
2010-06-23 08:02:31 51°23.474 2°45.492 319.2 13.3 320 28.4
2010-06-23 08:02:36 51°23.488 2°45.473 319.6 13.2 318 28.6
2010-06-23 08:02:41 51°23.502 2°45.454 319.3 13.2 320 28.8
2010-06-23 08:02:46 51°23.516 2°45.435 319.4 13.2 320 29
2010-06-23 08:02:51 51°23.529 2°45.416 319.6 13.2 319 28.7
2010-06-23 08:02:56 51°23.544 2°45.397 319.4 13.1 320 28.4